Аэропорт: Львов имени Даниила Галицкого. Львов

ICAO: UKLL

METAR:
2018/11/21 18:30
UKLL 211830Z 10005MPS 8000 BKN009 BKN023CB M01/M02 Q1023 R13/610250 NOSIG
METAR:
2018/11/21 18:12
TAF UKLL 211703Z 2118/2218 10006G11MPS 2100 BR SCT003 BKN007 TXM00/2212Z TNM03/2203Z 
      TEMPO 2210/2218 1400 SHSN SCT004 BKN020CB